<?xml version="1.0" encoding="UTF-8" standalone="no" ?>
<gpx xmlns="http://www.topografix.com/GPX/1/1" xmlns:xsi="http://www.w3.org/2001/XMLSchema-instance" xsi:schemaLocation="http://www.topografix.com/GPX/1/1 http://www.topografix.com/GPX/1/1/gpx.xsd" version="1.1" creator="VisuGPX - https://www.visugpx.com">
  <metadata>
    <name>Tourette Levens Mont Macaron </name>
    <desc><![CDATA[Mont macaron en boucle depuis tourette levens ]]></desc>
  </metadata>
  <trk>
    <name><![CDATA[mont macaron ]]></name>
    <trkseg>
      <trkpt lat="43.78741" lon="7.27568">
        <ele>415.963196</ele>
        <time>2021-02-15T09:15:19Z</time>
      </trkpt>
      <trkpt lat="43.78761" lon="7.27578">
        <ele>419.624786</ele>
        <time>2021-02-15T09:15:34Z</time>
      </trkpt>
      <trkpt lat="43.78783" lon="7.27579">
        <ele>420.897919</ele>
        <time>2021-02-15T09:15:50Z</time>
      </trkpt>
      <trkpt lat="43.78802" lon="7.27574">
        <ele>419.805237</ele>
        <time>2021-02-15T09:16:06Z</time>
      </trkpt>
      <trkpt lat="43.78821" lon="7.27564">
        <ele>417.185089</ele>
        <time>2021-02-15T09:16:21Z</time>
      </trkpt>
      <trkpt lat="43.78838" lon="7.2754">
        <ele>409.755676</ele>
        <time>2021-02-15T09:16:37Z</time>
      </trkpt>
      <trkpt lat="43.78858" lon="7.27518">
        <ele>402.033081</ele>
        <time>2021-02-15T09:16:53Z</time>
      </trkpt>
      <trkpt lat="43.78873" lon="7.27494">
        <ele>395.764526</ele>
        <time>2021-02-15T09:17:08Z</time>
      </trkpt>
      <trkpt lat="43.78892" lon="7.2748">
        <ele>393.161469</ele>
        <time>2021-02-15T09:17:24Z</time>
      </trkpt>
      <trkpt lat="43.78917" lon="7.27475">
        <ele>392.485748</ele>
        <time>2021-02-15T09:17:40Z</time>
      </trkpt>
      <trkpt lat="43.78938" lon="7.27481">
        <ele>391.196991</ele>
        <time>2021-02-15T09:17:55Z</time>
      </trkpt>
      <trkpt lat="43.78959" lon="7.27478">
        <ele>388.231232</ele>
        <time>2021-02-15T09:18:10Z</time>
      </trkpt>
      <trkpt lat="43.78983" lon="7.27473">
        <ele>384.846191</ele>
        <time>2021-02-15T09:18:26Z</time>
      </trkpt>
      <trkpt lat="43.79007" lon="7.27464">
        <ele>381.316132</ele>
        <time>2021-02-15T09:18:42Z</time>
      </trkpt>
      <trkpt lat="43.79032" lon="7.27453">
        <ele>377.386169</ele>
        <time>2021-02-15T09:18:58Z</time>
      </trkpt>
      <trkpt lat="43.79051" lon="7.27436">
        <ele>373.73175</ele>
        <time>2021-02-15T09:19:14Z</time>
      </trkpt>
      <trkpt lat="43.7907" lon="7.2742">
        <ele>370.521423</ele>
        <time>2021-02-15T09:19:29Z</time>
      </trkpt>
      <trkpt lat="43.7909" lon="7.27406">
        <ele>367.943573</ele>
        <time>2021-02-15T09:19:45Z</time>
      </trkpt>
      <trkpt lat="43.79109" lon="7.2739">
        <ele>365.879639</ele>
        <time>2021-02-15T09:20:00Z</time>
      </trkpt>
      <trkpt lat="43.79124" lon="7.27372">
        <ele>364.551239</ele>
        <time>2021-02-15T09:20:16Z</time>
      </trkpt>
      <trkpt lat="43.7915" lon="7.27377">
        <ele>362.681091</ele>
        <time>2021-02-15T09:20:31Z</time>
      </trkpt>
      <trkpt lat="43.79172" lon="7.27372">
        <ele>362.36438</ele>
        <time>2021-02-15T09:20:47Z</time>
      </trkpt>
      <trkpt lat="43.79191" lon="7.27369">
        <ele>365.486145</ele>
        <time>2021-02-15T09:21:02Z</time>
      </trkpt>
      <trkpt lat="43.79212" lon="7.27362">
        <ele>368.913513</ele>
        <time>2021-02-15T09:21:18Z</time>
      </trkpt>
      <trkpt lat="43.79197" lon="7.27378">
        <ele>366.119202</ele>
        <time>2021-02-15T09:21:34Z</time>
      </trkpt>
      <trkpt lat="43.79193" lon="7.274">
        <ele>364.874023</ele>
        <time>2021-02-15T09:21:49Z</time>
      </trkpt>
      <trkpt lat="43.79192" lon="7.2743">
        <ele>363.927551</ele>
        <time>2021-02-15T09:22:05Z</time>
      </trkpt>
      <trkpt lat="43.79194" lon="7.27451">
        <ele>363.70401</ele>
        <time>2021-02-15T09:22:21Z</time>
      </trkpt>
      <trkpt lat="43.79211" lon="7.2747">
        <ele>365.725769</ele>
        <time>2021-02-15T09:22:37Z</time>
      </trkpt>
      <trkpt lat="43.79225" lon="7.27492">
        <ele>367.022644</ele>
        <time>2021-02-15T09:22:52Z</time>
      </trkpt>
      <trkpt lat="43.79238" lon="7.27508">
        <ele>367.252502</ele>
        <time>2021-02-15T09:23:07Z</time>
      </trkpt>
      <trkpt lat="43.79244" lon="7.27535">
        <ele>364.322174</ele>
        <time>2021-02-15T09:23:23Z</time>
      </trkpt>
      <trkpt lat="43.79253" lon="7.27567">
        <ele>361.14566</ele>
        <time>2021-02-15T09:23:39Z</time>
      </trkpt>
      <trkpt lat="43.79259" lon="7.27598">
        <ele>356.990326</ele>
        <time>2021-02-15T09:23:55Z</time>
      </trkpt>
      <trkpt lat="43.79267" lon="7.27629">
        <ele>351.315002</ele>
        <time>2021-02-15T09:24:11Z</time>
      </trkpt>
      <trkpt lat="43.79277" lon="7.27653">
        <ele>346.420685</ele>
        <time>2021-02-15T09:24:27Z</time>
      </trkpt>
      <trkpt lat="43.79285" lon="7.27689">
        <ele>342.401733</ele>
        <time>2021-02-15T09:24:43Z</time>
      </trkpt>
      <trkpt lat="43.79302" lon="7.27708">
        <ele>341.958344</ele>
        <time>2021-02-15T09:24:58Z</time>
      </trkpt>
      <trkpt lat="43.79322" lon="7.27724">
        <ele>341.445282</ele>
        <time>2021-02-15T09:25:13Z</time>
      </trkpt>
      <trkpt lat="43.79339" lon="7.27736">
        <ele>341.305267</ele>
        <time>2021-02-15T09:25:28Z</time>
      </trkpt>
      <trkpt lat="43.79359" lon="7.27736">
        <ele>342.846436</ele>
        <time>2021-02-15T09:25:44Z</time>
      </trkpt>
      <trkpt lat="43.7936" lon="7.27756">
        <ele>342.764343</ele>
        <time>2021-02-15T09:26:06Z</time>
      </trkpt>
      <trkpt lat="43.79351" lon="7.27771">
        <ele>343.371277</ele>
        <time>2021-02-15T09:26:34Z</time>
      </trkpt>
      <trkpt lat="43.79363" lon="7.27781">
        <ele>345.333588</ele>
        <time>2021-02-15T09:26:56Z</time>
      </trkpt>
      <trkpt lat="43.79361" lon="7.278">
        <ele>346.899841</ele>
        <time>2021-02-15T09:27:33Z</time>
      </trkpt>
      <trkpt lat="43.79367" lon="7.27816">
        <ele>348.888336</ele>
        <time>2021-02-15T09:28:04Z</time>
      </trkpt>
      <trkpt lat="43.79381" lon="7.27823">
        <ele>350.508698</ele>
        <time>2021-02-15T09:28:21Z</time>
      </trkpt>
      <trkpt lat="43.79397" lon="7.27826">
        <ele>351.892517</ele>
        <time>2021-02-15T09:28:37Z</time>
      </trkpt>
      <trkpt lat="43.79385" lon="7.27836">
        <ele>352.377563</ele>
        <time>2021-02-15T09:29:00Z</time>
      </trkpt>
      <trkpt lat="43.79371" lon="7.27842">
        <ele>352.677704</ele>
        <time>2021-02-15T09:29:15Z</time>
      </trkpt>
      <trkpt lat="43.79354" lon="7.27853">
        <ele>354.035919</ele>
        <time>2021-02-15T09:29:31Z</time>
      </trkpt>
      <trkpt lat="43.79342" lon="7.27864">
        <ele>355.922333</ele>
        <time>2021-02-15T09:29:46Z</time>
      </trkpt>
      <trkpt lat="43.79327" lon="7.27876">
        <ele>357.837311</ele>
        <time>2021-02-15T09:30:01Z</time>
      </trkpt>
      <trkpt lat="43.79318" lon="7.27898">
        <ele>362.593994</ele>
        <time>2021-02-15T09:30:16Z</time>
      </trkpt>
      <trkpt lat="43.79312" lon="7.27918">
        <ele>367.681213</ele>
        <time>2021-02-15T09:30:32Z</time>
      </trkpt>
      <trkpt lat="43.79327" lon="7.27907">
        <ele>365.303131</ele>
        <time>2021-02-15T09:30:47Z</time>
      </trkpt>
      <trkpt lat="43.79325" lon="7.27927">
        <ele>372.887817</ele>
        <time>2021-02-15T09:31:13Z</time>
      </trkpt>
      <trkpt lat="43.79316" lon="7.27946">
        <ele>382.844086</ele>
        <time>2021-02-15T09:31:28Z</time>
      </trkpt>
      <trkpt lat="43.79308" lon="7.27967">
        <ele>393.925476</ele>
        <time>2021-02-15T09:31:43Z</time>
      </trkpt>
      <trkpt lat="43.79322" lon="7.27964">
        <ele>392.702515</ele>
        <time>2021-02-15T09:32:05Z</time>
      </trkpt>
      <trkpt lat="43.79334" lon="7.27954">
        <ele>387.630188</ele>
        <time>2021-02-15T09:33:50Z</time>
      </trkpt>
      <trkpt lat="43.79346" lon="7.27945">
        <ele>383.090363</ele>
        <time>2021-02-15T09:34:06Z</time>
      </trkpt>
      <trkpt lat="43.7936" lon="7.27944">
        <ele>382.654083</ele>
        <time>2021-02-15T09:34:24Z</time>
      </trkpt>
      <trkpt lat="43.79373" lon="7.27941">
        <ele>381.784851</ele>
        <time>2021-02-15T09:34:43Z</time>
      </trkpt>
      <trkpt lat="43.79388" lon="7.2794">
        <ele>381.31842</ele>
        <time>2021-02-15T09:36:23Z</time>
      </trkpt>
      <trkpt lat="43.79381" lon="7.27957">
        <ele>389.553345</ele>
        <time>2021-02-15T09:36:54Z</time>
      </trkpt>
      <trkpt lat="43.79369" lon="7.27968">
        <ele>394.6185</ele>
        <time>2021-02-15T09:37:09Z</time>
      </trkpt>
      <trkpt lat="43.79361" lon="7.27985">
        <ele>403.39212</ele>
        <time>2021-02-15T09:37:24Z</time>
      </trkpt>
      <trkpt lat="43.79352" lon="7.28007">
        <ele>414.766968</ele>
        <time>2021-02-15T09:37:40Z</time>
      </trkpt>
      <trkpt lat="43.79365" lon="7.28005">
        <ele>412.843414</ele>
        <time>2021-02-15T09:37:57Z</time>
      </trkpt>
      <trkpt lat="43.79382" lon="7.27999">
        <ele>409.311462</ele>
        <time>2021-02-15T09:38:13Z</time>
      </trkpt>
      <trkpt lat="43.79396" lon="7.27991">
        <ele>405.043213</ele>
        <time>2021-02-15T09:38:28Z</time>
      </trkpt>
      <trkpt lat="43.79409" lon="7.27981">
        <ele>400.15033</ele>
        <time>2021-02-15T09:38:48Z</time>
      </trkpt>
      <trkpt lat="43.79415" lon="7.27999">
        <ele>407.654846</ele>
        <time>2021-02-15T09:39:23Z</time>
      </trkpt>
      <trkpt lat="43.79429" lon="7.28002">
        <ele>410.63913</ele>
        <time>2021-02-15T09:39:39Z</time>
      </trkpt>
      <trkpt lat="43.79444" lon="7.28008">
        <ele>415.858032</ele>
        <time>2021-02-15T09:39:54Z</time>
      </trkpt>
      <trkpt lat="43.79457" lon="7.28016">
        <ele>421.31131</ele>
        <time>2021-02-15T09:40:10Z</time>
      </trkpt>
      <trkpt lat="43.79474" lon="7.28026">
        <ele>427.475342</ele>
        <time>2021-02-15T09:40:26Z</time>
      </trkpt>
      <trkpt lat="43.79485" lon="7.28041">
        <ele>434.901001</ele>
        <time>2021-02-15T09:40:42Z</time>
      </trkpt>
      <trkpt lat="43.79494" lon="7.28058">
        <ele>442.136993</ele>
        <time>2021-02-15T09:40:57Z</time>
      </trkpt>
      <trkpt lat="43.79505" lon="7.28077">
        <ele>450.421265</ele>
        <time>2021-02-15T09:41:13Z</time>
      </trkpt>
      <trkpt lat="43.79514" lon="7.28092">
        <ele>457.722351</ele>
        <time>2021-02-15T09:41:30Z</time>
      </trkpt>
      <trkpt lat="43.79523" lon="7.2811">
        <ele>466.058502</ele>
        <time>2021-02-15T09:41:45Z</time>
      </trkpt>
      <trkpt lat="43.79532" lon="7.28125">
        <ele>472.493042</ele>
        <time>2021-02-15T09:42:00Z</time>
      </trkpt>
      <trkpt lat="43.79542" lon="7.28143">
        <ele>479.870911</ele>
        <time>2021-02-15T09:42:16Z</time>
      </trkpt>
      <trkpt lat="43.79552" lon="7.28156">
        <ele>484.601471</ele>
        <time>2021-02-15T09:42:32Z</time>
      </trkpt>
      <trkpt lat="43.79564" lon="7.28173">
        <ele>490.509827</ele>
        <time>2021-02-15T09:42:48Z</time>
      </trkpt>
      <trkpt lat="43.7955" lon="7.28176">
        <ele>491.718811</ele>
        <time>2021-02-15T09:43:37Z</time>
      </trkpt>
      <trkpt lat="43.79556" lon="7.28193">
        <ele>497.962219</ele>
        <time>2021-02-15T09:43:57Z</time>
      </trkpt>
      <trkpt lat="43.79567" lon="7.28208">
        <ele>502.74884</ele>
        <time>2021-02-15T09:44:12Z</time>
      </trkpt>
      <trkpt lat="43.7958" lon="7.28224">
        <ele>507.967499</ele>
        <time>2021-02-15T09:44:28Z</time>
      </trkpt>
      <trkpt lat="43.79587" lon="7.28241">
        <ele>514.383301</ele>
        <time>2021-02-15T09:44:44Z</time>
      </trkpt>
      <trkpt lat="43.79603" lon="7.2825">
        <ele>519.051819</ele>
        <time>2021-02-15T09:45:00Z</time>
      </trkpt>
      <trkpt lat="43.79621" lon="7.28252">
        <ele>521.696594</ele>
        <time>2021-02-15T09:45:16Z</time>
      </trkpt>
      <trkpt lat="43.79636" lon="7.28261">
        <ele>525.482422</ele>
        <time>2021-02-15T09:45:31Z</time>
      </trkpt>
      <trkpt lat="43.79648" lon="7.28271">
        <ele>529.297852</ele>
        <time>2021-02-15T09:45:47Z</time>
      </trkpt>
      <trkpt lat="43.79646" lon="7.28289">
        <ele>533.836548</ele>
        <time>2021-02-15T09:46:05Z</time>
      </trkpt>
      <trkpt lat="43.79645" lon="7.28314">
        <ele>540.053101</ele>
        <time>2021-02-15T09:46:20Z</time>
      </trkpt>
      <trkpt lat="43.79642" lon="7.28336">
        <ele>545.155762</ele>
        <time>2021-02-15T09:46:36Z</time>
      </trkpt>
      <trkpt lat="43.79641" lon="7.28356">
        <ele>548.049805</ele>
        <time>2021-02-15T09:46:52Z</time>
      </trkpt>
      <trkpt lat="43.79635" lon="7.28375">
        <ele>550.41626</ele>
        <time>2021-02-15T09:47:08Z</time>
      </trkpt>
      <trkpt lat="43.7962" lon="7.28386">
        <ele>551.348389</ele>
        <time>2021-02-15T09:47:24Z</time>
      </trkpt>
      <trkpt lat="43.79624" lon="7.28407">
        <ele>554.541626</ele>
        <time>2021-02-15T09:47:40Z</time>
      </trkpt>
      <trkpt lat="43.79637" lon="7.28418">
        <ele>556.61853</ele>
        <time>2021-02-15T09:47:59Z</time>
      </trkpt>
      <trkpt lat="43.79648" lon="7.28432">
        <ele>557.606567</ele>
        <time>2021-02-15T09:48:15Z</time>
      </trkpt>
      <trkpt lat="43.79651" lon="7.28451">
        <ele>558.384766</ele>
        <time>2021-02-15T09:48:35Z</time>
      </trkpt>
      <trkpt lat="43.79655" lon="7.28473">
        <ele>559.158325</ele>
        <time>2021-02-15T09:48:51Z</time>
      </trkpt>
      <trkpt lat="43.79665" lon="7.28489">
        <ele>559.712769</ele>
        <time>2021-02-15T09:49:06Z</time>
      </trkpt>
      <trkpt lat="43.79682" lon="7.28504">
        <ele>560.573242</ele>
        <time>2021-02-15T09:49:22Z</time>
      </trkpt>
      <trkpt lat="43.797" lon="7.28525">
        <ele>560.578247</ele>
        <time>2021-02-15T09:49:38Z</time>
      </trkpt>
      <trkpt lat="43.79713" lon="7.28545">
        <ele>560.299133</ele>
        <time>2021-02-15T09:49:54Z</time>
      </trkpt>
      <trkpt lat="43.79724" lon="7.28571">
        <ele>559.611572</ele>
        <time>2021-02-15T09:50:10Z</time>
      </trkpt>
      <trkpt lat="43.79738" lon="7.28595">
        <ele>558.172852</ele>
        <time>2021-02-15T09:50:26Z</time>
      </trkpt>
      <trkpt lat="43.79748" lon="7.2862">
        <ele>555.541748</ele>
        <time>2021-02-15T09:50:41Z</time>
      </trkpt>
      <trkpt lat="43.79756" lon="7.28645">
        <ele>553.056641</ele>
        <time>2021-02-15T09:50:57Z</time>
      </trkpt>
      <trkpt lat="43.79766" lon="7.28669">
        <ele>550.918945</ele>
        <time>2021-02-15T09:51:12Z</time>
      </trkpt>
      <trkpt lat="43.79773" lon="7.28692">
        <ele>548.266602</ele>
        <time>2021-02-15T09:51:27Z</time>
      </trkpt>
      <trkpt lat="43.79788" lon="7.28707">
        <ele>547.407227</ele>
        <time>2021-02-15T09:51:43Z</time>
      </trkpt>
      <trkpt lat="43.79802" lon="7.28728">
        <ele>545.526917</ele>
        <time>2021-02-15T09:51:59Z</time>
      </trkpt>
      <trkpt lat="43.79815" lon="7.28744">
        <ele>544.281067</ele>
        <time>2021-02-15T09:52:14Z</time>
      </trkpt>
      <trkpt lat="43.79833" lon="7.28752">
        <ele>545.129456</ele>
        <time>2021-02-15T09:52:30Z</time>
      </trkpt>
      <trkpt lat="43.79855" lon="7.28756">
        <ele>550.461426</ele>
        <time>2021-02-15T09:52:46Z</time>
      </trkpt>
      <trkpt lat="43.79876" lon="7.28759">
        <ele>555.613037</ele>
        <time>2021-02-15T09:53:01Z</time>
      </trkpt>
      <trkpt lat="43.79886" lon="7.28772">
        <ele>560.048462</ele>
        <time>2021-02-15T09:53:20Z</time>
      </trkpt>
      <trkpt lat="43.79899" lon="7.28781">
        <ele>564.866943</ele>
        <time>2021-02-15T09:53:44Z</time>
      </trkpt>
      <trkpt lat="43.79916" lon="7.28775">
        <ele>568.211182</ele>
        <time>2021-02-15T09:54:00Z</time>
      </trkpt>
      <trkpt lat="43.79931" lon="7.28772">
        <ele>572.575745</ele>
        <time>2021-02-15T09:54:16Z</time>
      </trkpt>
      <trkpt lat="43.79944" lon="7.28771">
        <ele>576.686829</ele>
        <time>2021-02-15T09:54:31Z</time>
      </trkpt>
      <trkpt lat="43.79939" lon="7.28789">
        <ele>579.567139</ele>
        <time>2021-02-15T09:54:57Z</time>
      </trkpt>
      <trkpt lat="43.79931" lon="7.28806">
        <ele>580.566956</ele>
        <time>2021-02-15T09:55:12Z</time>
      </trkpt>
      <trkpt lat="43.79929" lon="7.28825">
        <ele>583.829346</ele>
        <time>2021-02-15T09:55:27Z</time>
      </trkpt>
      <trkpt lat="43.79928" lon="7.28845">
        <ele>587.483276</ele>
        <time>2021-02-15T09:55:43Z</time>
      </trkpt>
      <trkpt lat="43.79929" lon="7.28864">
        <ele>591.311646</ele>
        <time>2021-02-15T09:55:59Z</time>
      </trkpt>
      <trkpt lat="43.79931" lon="7.28888">
        <ele>596.132141</ele>
        <time>2021-02-15T09:56:14Z</time>
      </trkpt>
      <trkpt lat="43.79929" lon="7.28913">
        <ele>599.565308</ele>
        <time>2021-02-15T09:56:30Z</time>
      </trkpt>
      <trkpt lat="43.79933" lon="7.28934">
        <ele>603.344116</ele>
        <time>2021-02-15T09:56:45Z</time>
      </trkpt>
      <trkpt lat="43.79937" lon="7.28952">
        <ele>606.313721</ele>
        <time>2021-02-15T09:57:01Z</time>
      </trkpt>
      <trkpt lat="43.79941" lon="7.28976">
        <ele>609.614746</ele>
        <time>2021-02-15T09:57:16Z</time>
      </trkpt>
      <trkpt lat="43.79945" lon="7.28998">
        <ele>613.070312</ele>
        <time>2021-02-15T09:57:32Z</time>
      </trkpt>
      <trkpt lat="43.79949" lon="7.2902">
        <ele>615.868835</ele>
        <time>2021-02-15T09:57:47Z</time>
      </trkpt>
      <trkpt lat="43.79949" lon="7.2904">
        <ele>617.0224</ele>
        <time>2021-02-15T09:58:06Z</time>
      </trkpt>
      <trkpt lat="43.79955" lon="7.29061">
        <ele>620.176514</ele>
        <time>2021-02-15T09:58:22Z</time>
      </trkpt>
      <trkpt lat="43.79961" lon="7.29083">
        <ele>623.423462</ele>
        <time>2021-02-15T09:58:38Z</time>
      </trkpt>
      <trkpt lat="43.79972" lon="7.29099">
        <ele>628.171753</ele>
        <time>2021-02-15T09:58:53Z</time>
      </trkpt>
      <trkpt lat="43.7998" lon="7.29116">
        <ele>631.13916</ele>
        <time>2021-02-15T09:59:09Z</time>
      </trkpt>
      <trkpt lat="43.79986" lon="7.29135">
        <ele>632.995605</ele>
        <time>2021-02-15T09:59:25Z</time>
      </trkpt>
      <trkpt lat="43.79988" lon="7.29157">
        <ele>633.270264</ele>
        <time>2021-02-15T09:59:41Z</time>
      </trkpt>
      <trkpt lat="43.7999" lon="7.29179">
        <ele>633.437988</ele>
        <time>2021-02-15T09:59:56Z</time>
      </trkpt>
      <trkpt lat="43.79997" lon="7.29201">
        <ele>633.566711</ele>
        <time>2021-02-15T10:00:11Z</time>
      </trkpt>
      <trkpt lat="43.80003" lon="7.29223">
        <ele>633.347168</ele>
        <time>2021-02-15T10:00:26Z</time>
      </trkpt>
      <trkpt lat="43.8001" lon="7.29243">
        <ele>633.385498</ele>
        <time>2021-02-15T10:00:42Z</time>
      </trkpt>
      <trkpt lat="43.80027" lon="7.29253">
        <ele>634.369324</ele>
        <time>2021-02-15T10:00:57Z</time>
      </trkpt>
      <trkpt lat="43.80029" lon="7.29272">
        <ele>632.760254</ele>
        <time>2021-02-15T10:01:26Z</time>
      </trkpt>
      <trkpt lat="43.80023" lon="7.29289">
        <ele>631.108643</ele>
        <time>2021-02-15T10:01:42Z</time>
      </trkpt>
      <trkpt lat="43.80009" lon="7.29283">
        <ele>631.154785</ele>
        <time>2021-02-15T10:02:00Z</time>
      </trkpt>
      <trkpt lat="43.79994" lon="7.29274">
        <ele>631.750977</ele>
        <time>2021-02-15T10:02:16Z</time>
      </trkpt>
      <trkpt lat="43.79976" lon="7.29264">
        <ele>633.439087</ele>
        <time>2021-02-15T10:02:31Z</time>
      </trkpt>
      <trkpt lat="43.79962" lon="7.29264">
        <ele>634.575623</ele>
        <time>2021-02-15T10:03:21Z</time>
      </trkpt>
      <trkpt lat="43.79948" lon="7.29268">
        <ele>635.849365</ele>
        <time>2021-02-15T10:03:40Z</time>
      </trkpt>
      <trkpt lat="43.79939" lon="7.29283">
        <ele>637.351074</ele>
        <time>2021-02-15T10:03:57Z</time>
      </trkpt>
      <trkpt lat="43.79925" lon="7.29285">
        <ele>638.974976</ele>
        <time>2021-02-15T10:04:21Z</time>
      </trkpt>
      <trkpt lat="43.7991" lon="7.29273">
        <ele>641.09436</ele>
        <time>2021-02-15T10:04:37Z</time>
      </trkpt>
      <trkpt lat="43.79897" lon="7.29268">
        <ele>644.943848</ele>
        <time>2021-02-15T10:05:16Z</time>
      </trkpt>
      <trkpt lat="43.79881" lon="7.29263">
        <ele>649.391235</ele>
        <time>2021-02-15T10:05:32Z</time>
      </trkpt>
      <trkpt lat="43.79867" lon="7.29253">
        <ele>652.907104</ele>
        <time>2021-02-15T10:05:47Z</time>
      </trkpt>
      <trkpt lat="43.7985" lon="7.29242">
        <ele>655.451965</ele>
        <time>2021-02-15T10:06:03Z</time>
      </trkpt>
      <trkpt lat="43.79836" lon="7.29244">
        <ele>660.233826</ele>
        <time>2021-02-15T10:06:27Z</time>
      </trkpt>
      <trkpt lat="43.79821" lon="7.29236">
        <ele>662.866272</ele>
        <time>2021-02-15T10:06:42Z</time>
      </trkpt>
      <trkpt lat="43.79803" lon="7.29233">
        <ele>667.65918</ele>
        <time>2021-02-15T10:06:58Z</time>
      </trkpt>
      <trkpt lat="43.79809" lon="7.2925">
        <ele>670.88855</ele>
        <time>2021-02-15T10:07:16Z</time>
      </trkpt>
      <trkpt lat="43.79796" lon="7.29245">
        <ele>673.890381</ele>
        <time>2021-02-15T10:07:32Z</time>
      </trkpt>
      <trkpt lat="43.79783" lon="7.29237">
        <ele>675.572693</ele>
        <time>2021-02-15T10:07:48Z</time>
      </trkpt>
      <trkpt lat="43.79764" lon="7.29237">
        <ele>681.696289</ele>
        <time>2021-02-15T10:08:04Z</time>
      </trkpt>
      <trkpt lat="43.79748" lon="7.29238">
        <ele>686.755066</ele>
        <time>2021-02-15T10:08:20Z</time>
      </trkpt>
      <trkpt lat="43.79733" lon="7.29248">
        <ele>691.088867</ele>
        <time>2021-02-15T10:08:35Z</time>
      </trkpt>
      <trkpt lat="43.79719" lon="7.29256">
        <ele>694.239868</ele>
        <time>2021-02-15T10:09:08Z</time>
      </trkpt>
      <trkpt lat="43.79706" lon="7.29262">
        <ele>697.114075</ele>
        <time>2021-02-15T10:09:24Z</time>
      </trkpt>
      <trkpt lat="43.79694" lon="7.29272">
        <ele>701.24054</ele>
        <time>2021-02-15T10:10:05Z</time>
      </trkpt>
      <trkpt lat="43.79675" lon="7.29279">
        <ele>705.810547</ele>
        <time>2021-02-15T10:10:20Z</time>
      </trkpt>
      <trkpt lat="43.79654" lon="7.29293">
        <ele>710.339417</ele>
        <time>2021-02-15T10:10:36Z</time>
      </trkpt>
      <trkpt lat="43.79637" lon="7.29304">
        <ele>711.933167</ele>
        <time>2021-02-15T10:10:51Z</time>
      </trkpt>
      <trkpt lat="43.79624" lon="7.29314">
        <ele>713.853394</ele>
        <time>2021-02-15T10:11:06Z</time>
      </trkpt>
      <trkpt lat="43.7961" lon="7.29321">
        <ele>714.4021</ele>
        <time>2021-02-15T10:11:50Z</time>
      </trkpt>
      <trkpt lat="43.7959" lon="7.29329">
        <ele>714.184143</ele>
        <time>2021-02-15T10:12:05Z</time>
      </trkpt>
      <trkpt lat="43.79567" lon="7.29341">
        <ele>711.240051</ele>
        <time>2021-02-15T10:12:21Z</time>
      </trkpt>
      <trkpt lat="43.79547" lon="7.29356">
        <ele>707.49353</ele>
        <time>2021-02-15T10:12:37Z</time>
      </trkpt>
      <trkpt lat="43.79538" lon="7.29376">
        <ele>708.760498</ele>
        <time>2021-02-15T10:12:52Z</time>
      </trkpt>
      <trkpt lat="43.79531" lon="7.29399">
        <ele>710.879272</ele>
        <time>2021-02-15T10:13:08Z</time>
      </trkpt>
      <trkpt lat="43.79529" lon="7.29425">
        <ele>714.332275</ele>
        <time>2021-02-15T10:13:24Z</time>
      </trkpt>
      <trkpt lat="43.79525" lon="7.29452">
        <ele>714.476379</ele>
        <time>2021-02-15T10:13:39Z</time>
      </trkpt>
      <trkpt lat="43.7952" lon="7.29479">
        <ele>714.685974</ele>
        <time>2021-02-15T10:13:55Z</time>
      </trkpt>
      <trkpt lat="43.79519" lon="7.29505">
        <ele>715.655212</ele>
        <time>2021-02-15T10:14:10Z</time>
      </trkpt>
      <trkpt lat="43.79521" lon="7.29526">
        <ele>715.099548</ele>
        <time>2021-02-15T10:14:26Z</time>
      </trkpt>
      <trkpt lat="43.79516" lon="7.29553">
        <ele>713.076782</ele>
        <time>2021-02-15T10:14:42Z</time>
      </trkpt>
      <trkpt lat="43.79521" lon="7.29575">
        <ele>712.613098</ele>
        <time>2021-02-15T10:14:57Z</time>
      </trkpt>
      <trkpt lat="43.79522" lon="7.29605">
        <ele>711.770081</ele>
        <time>2021-02-15T10:15:13Z</time>
      </trkpt>
      <trkpt lat="43.79515" lon="7.29622">
        <ele>711.234985</ele>
        <time>2021-02-15T10:17:08Z</time>
      </trkpt>
      <trkpt lat="43.79506" lon="7.29637">
        <ele>710.992126</ele>
        <time>2021-02-15T10:17:26Z</time>
      </trkpt>
      <trkpt lat="43.79498" lon="7.29654">
        <ele>710.834656</ele>
        <time>2021-02-15T10:17:42Z</time>
      </trkpt>
      <trkpt lat="43.79489" lon="7.29675">
        <ele>710.337646</ele>
        <time>2021-02-15T10:17:58Z</time>
      </trkpt>
      <trkpt lat="43.79478" lon="7.29695">
        <ele>710.067871</ele>
        <time>2021-02-15T10:18:14Z</time>
      </trkpt>
      <trkpt lat="43.79469" lon="7.2971">
        <ele>710.158569</ele>
        <time>2021-02-15T10:18:35Z</time>
      </trkpt>
      <trkpt lat="43.79459" lon="7.29728">
        <ele>710.715942</ele>
        <time>2021-02-15T10:18:50Z</time>
      </trkpt>
      <trkpt lat="43.79449" lon="7.29749">
        <ele>711.810425</ele>
        <time>2021-02-15T10:19:05Z</time>
      </trkpt>
      <trkpt lat="43.7944" lon="7.29771">
        <ele>713.170532</ele>
        <time>2021-02-15T10:19:21Z</time>
      </trkpt>
      <trkpt lat="43.79432" lon="7.29787">
        <ele>714.507874</ele>
        <time>2021-02-15T10:22:28Z</time>
      </trkpt>
      <trkpt lat="43.79428" lon="7.29805">
        <ele>715.897095</ele>
        <time>2021-02-15T10:23:06Z</time>
      </trkpt>
      <trkpt lat="43.79416" lon="7.29817">
        <ele>717.724976</ele>
        <time>2021-02-15T10:23:21Z</time>
      </trkpt>
      <trkpt lat="43.79403" lon="7.29832">
        <ele>717.179382</ele>
        <time>2021-02-15T10:23:37Z</time>
      </trkpt>
      <trkpt lat="43.79389" lon="7.29852">
        <ele>716.095764</ele>
        <time>2021-02-15T10:23:52Z</time>
      </trkpt>
      <trkpt lat="43.79377" lon="7.29876">
        <ele>715.46875</ele>
        <time>2021-02-15T10:24:07Z</time>
      </trkpt>
      <trkpt lat="43.79368" lon="7.29892">
        <ele>715.094482</ele>
        <time>2021-02-15T10:25:20Z</time>
      </trkpt>
      <trkpt lat="43.79362" lon="7.29921">
        <ele>715.613098</ele>
        <time>2021-02-15T10:25:35Z</time>
      </trkpt>
      <trkpt lat="43.79356" lon="7.29952">
        <ele>716.457825</ele>
        <time>2021-02-15T10:25:50Z</time>
      </trkpt>
      <trkpt lat="43.79348" lon="7.29982">
        <ele>717.448242</ele>
        <time>2021-02-15T10:26:06Z</time>
      </trkpt>
      <trkpt lat="43.79339" lon="7.30005">
        <ele>718.116394</ele>
        <time>2021-02-15T10:26:21Z</time>
      </trkpt>
      <trkpt lat="43.79332" lon="7.30035">
        <ele>717.718933</ele>
        <time>2021-02-15T10:26:37Z</time>
      </trkpt>
      <trkpt lat="43.79352" lon="7.30052">
        <ele>718.169373</ele>
        <time>2021-02-15T10:26:53Z</time>
      </trkpt>
      <trkpt lat="43.79367" lon="7.30074">
        <ele>718.087158</ele>
        <time>2021-02-15T10:27:08Z</time>
      </trkpt>
      <trkpt lat="43.79378" lon="7.30101">
        <ele>716.483521</ele>
        <time>2021-02-15T10:27:24Z</time>
      </trkpt>
      <trkpt lat="43.79373" lon="7.30132">
        <ele>714.000244</ele>
        <time>2021-02-15T10:27:40Z</time>
      </trkpt>
      <trkpt lat="43.79362" lon="7.30159">
        <ele>712.190857</ele>
        <time>2021-02-15T10:27:56Z</time>
      </trkpt>
      <trkpt lat="43.79348" lon="7.30184">
        <ele>710.154663</ele>
        <time>2021-02-15T10:28:11Z</time>
      </trkpt>
      <trkpt lat="43.79333" lon="7.30205">
        <ele>708.919556</ele>
        <time>2021-02-15T10:28:26Z</time>
      </trkpt>
      <trkpt lat="43.79313" lon="7.3021">
        <ele>709.159546</ele>
        <time>2021-02-15T10:28:42Z</time>
      </trkpt>
      <trkpt lat="43.79296" lon="7.30217">
        <ele>709.640625</ele>
        <time>2021-02-15T10:28:58Z</time>
      </trkpt>
      <trkpt lat="43.7928" lon="7.30226">
        <ele>710.661316</ele>
        <time>2021-02-15T10:29:14Z</time>
      </trkpt>
      <trkpt lat="43.79264" lon="7.30242">
        <ele>712.714783</ele>
        <time>2021-02-15T10:29:30Z</time>
      </trkpt>
      <trkpt lat="43.79249" lon="7.30249">
        <ele>715.01239</ele>
        <time>2021-02-15T10:29:45Z</time>
      </trkpt>
      <trkpt lat="43.79236" lon="7.3026">
        <ele>714.849365</ele>
        <time>2021-02-15T10:30:01Z</time>
      </trkpt>
      <trkpt lat="43.79227" lon="7.30273">
        <ele>714.336426</ele>
        <time>2021-02-15T10:30:22Z</time>
      </trkpt>
      <trkpt lat="43.79214" lon="7.30282">
        <ele>714.858276</ele>
        <time>2021-02-15T10:30:38Z</time>
      </trkpt>
      <trkpt lat="43.79201" lon="7.30289">
        <ele>715.783813</ele>
        <time>2021-02-15T10:31:07Z</time>
      </trkpt>
      <trkpt lat="43.79178" lon="7.30296">
        <ele>718.078857</ele>
        <time>2021-02-15T10:31:23Z</time>
      </trkpt>
      <trkpt lat="43.79159" lon="7.30312">
        <ele>719.103271</ele>
        <time>2021-02-15T10:31:39Z</time>
      </trkpt>
      <trkpt lat="43.79143" lon="7.30337">
        <ele>719.705627</ele>
        <time>2021-02-15T10:31:55Z</time>
      </trkpt>
      <trkpt lat="43.79127" lon="7.30355">
        <ele>720.436096</ele>
        <time>2021-02-15T10:32:11Z</time>
      </trkpt>
      <trkpt lat="43.79112" lon="7.30377">
        <ele>722.557983</ele>
        <time>2021-02-15T10:32:27Z</time>
      </trkpt>
      <trkpt lat="43.79094" lon="7.30394">
        <ele>726.541748</ele>
        <time>2021-02-15T10:32:43Z</time>
      </trkpt>
      <trkpt lat="43.79076" lon="7.30403">
        <ele>730.300598</ele>
        <time>2021-02-15T10:32:59Z</time>
      </trkpt>
      <trkpt lat="43.79058" lon="7.30417">
        <ele>734.259521</ele>
        <time>2021-02-15T10:33:15Z</time>
      </trkpt>
      <trkpt lat="43.79041" lon="7.30417">
        <ele>736.607666</ele>
        <time>2021-02-15T10:33:30Z</time>
      </trkpt>
      <trkpt lat="43.79024" lon="7.3041">
        <ele>737.43988</ele>
        <time>2021-02-15T10:33:46Z</time>
      </trkpt>
      <trkpt lat="43.79006" lon="7.30395">
        <ele>735.746887</ele>
        <time>2021-02-15T10:34:02Z</time>
      </trkpt>
      <trkpt lat="43.78988" lon="7.30385">
        <ele>733.143433</ele>
        <time>2021-02-15T10:34:17Z</time>
      </trkpt>
      <trkpt lat="43.78969" lon="7.30391">
        <ele>734.235718</ele>
        <time>2021-02-15T10:34:32Z</time>
      </trkpt>
      <trkpt lat="43.78949" lon="7.30401">
        <ele>736.719971</ele>
        <time>2021-02-15T10:34:48Z</time>
      </trkpt>
      <trkpt lat="43.78931" lon="7.30416">
        <ele>740.966919</ele>
        <time>2021-02-15T10:35:03Z</time>
      </trkpt>
      <trkpt lat="43.78913" lon="7.30433">
        <ele>743.920654</ele>
        <time>2021-02-15T10:35:19Z</time>
      </trkpt>
      <trkpt lat="43.78894" lon="7.30451">
        <ele>745.502747</ele>
        <time>2021-02-15T10:35:34Z</time>
      </trkpt>
      <trkpt lat="43.78879" lon="7.30473">
        <ele>749.45813</ele>
        <time>2021-02-15T10:35:49Z</time>
      </trkpt>
      <trkpt lat="43.78861" lon="7.30495">
        <ele>754.704468</ele>
        <time>2021-02-15T10:36:05Z</time>
      </trkpt>
      <trkpt lat="43.78845" lon="7.30516">
        <ele>756.25116</ele>
        <time>2021-02-15T10:36:20Z</time>
      </trkpt>
      <trkpt lat="43.78826" lon="7.30536">
        <ele>756.483765</ele>
        <time>2021-02-15T10:36:36Z</time>
      </trkpt>
      <trkpt lat="43.78807" lon="7.30554">
        <ele>756.692871</ele>
        <time>2021-02-15T10:36:52Z</time>
      </trkpt>
      <trkpt lat="43.78787" lon="7.3057">
        <ele>757.972778</ele>
        <time>2021-02-15T10:37:08Z</time>
      </trkpt>
      <trkpt lat="43.7877" lon="7.30585">
        <ele>759.846802</ele>
        <time>2021-02-15T10:37:23Z</time>
      </trkpt>
      <trkpt lat="43.78751" lon="7.30601">
        <ele>758.918701</ele>
        <time>2021-02-15T10:37:39Z</time>
      </trkpt>
      <trkpt lat="43.78733" lon="7.30612">
        <ele>758.62677</ele>
        <time>2021-02-15T10:37:54Z</time>
      </trkpt>
      <trkpt lat="43.78719" lon="7.30619">
        <ele>758.635986</ele>
        <time>2021-02-15T10:38:39Z</time>
      </trkpt>
      <trkpt lat="43.78695" lon="7.30626">
        <ele>759.114746</ele>
        <time>2021-02-15T10:38:55Z</time>
      </trkpt>
      <trkpt lat="43.78673" lon="7.3063">
        <ele>759.805481</ele>
        <time>2021-02-15T10:39:10Z</time>
      </trkpt>
      <trkpt lat="43.78649" lon="7.3063">
        <ele>761.974976</ele>
        <time>2021-02-15T10:39:26Z</time>
      </trkpt>
      <trkpt lat="43.78629" lon="7.30631">
        <ele>764.09021</ele>
        <time>2021-02-15T10:39:41Z</time>
      </trkpt>
      <trkpt lat="43.78607" lon="7.30634">
        <ele>766.312561</ele>
        <time>2021-02-15T10:39:57Z</time>
      </trkpt>
      <trkpt lat="43.78586" lon="7.30636">
        <ele>768.165039</ele>
        <time>2021-02-15T10:40:12Z</time>
      </trkpt>
      <trkpt lat="43.78565" lon="7.30643">
        <ele>769.586914</ele>
        <time>2021-02-15T10:40:28Z</time>
      </trkpt>
      <trkpt lat="43.78544" lon="7.30645">
        <ele>771.404785</ele>
        <time>2021-02-15T10:40:43Z</time>
      </trkpt>
      <trkpt lat="43.7853" lon="7.30646">
        <ele>772.83374</ele>
        <time>2021-02-15T10:41:06Z</time>
      </trkpt>
      <trkpt lat="43.78516" lon="7.30646">
        <ele>774.135315</ele>
        <time>2021-02-15T10:41:27Z</time>
      </trkpt>
      <trkpt lat="43.78506" lon="7.30625">
        <ele>782.051819</ele>
        <time>2021-02-15T10:41:43Z</time>
      </trkpt>
      <trkpt lat="43.78498" lon="7.30605">
        <ele>789.798706</ele>
        <time>2021-02-15T10:41:59Z</time>
      </trkpt>
      <trkpt lat="43.78491" lon="7.30585">
        <ele>796.776367</ele>
        <time>2021-02-15T10:42:15Z</time>
      </trkpt>
      <trkpt lat="43.78482" lon="7.3057">
        <ele>797.472046</ele>
        <time>2021-02-15T10:42:35Z</time>
      </trkpt>
      <trkpt lat="43.78477" lon="7.30553">
        <ele>797.669434</ele>
        <time>2021-02-15T10:42:52Z</time>
      </trkpt>
      <trkpt lat="43.78467" lon="7.30539">
        <ele>798.00647</ele>
        <time>2021-02-15T10:43:11Z</time>
      </trkpt>
      <trkpt lat="43.78456" lon="7.30528">
        <ele>798.412598</ele>
        <time>2021-02-15T10:43:43Z</time>
      </trkpt>
      <trkpt lat="43.78445" lon="7.30518">
        <ele>798.858154</ele>
        <time>2021-02-15T10:44:44Z</time>
      </trkpt>
      <trkpt lat="43.78432" lon="7.30525">
        <ele>799.210083</ele>
        <time>2021-02-15T10:45:11Z</time>
      </trkpt>
      <trkpt lat="43.7842" lon="7.30513">
        <ele>799.739075</ele>
        <time>2021-02-15T11:13:28Z</time>
      </trkpt>
      <trkpt lat="43.78406" lon="7.3051">
        <ele>799.678467</ele>
        <time>2021-02-15T11:13:46Z</time>
      </trkpt>
      <trkpt lat="43.78387" lon="7.30508">
        <ele>799.384033</ele>
        <time>2021-02-15T11:14:01Z</time>
      </trkpt>
      <trkpt lat="43.78376" lon="7.30489">
        <ele>797.595886</ele>
        <time>2021-02-15T11:14:17Z</time>
      </trkpt>
      <trkpt lat="43.78362" lon="7.3048">
        <ele>795.578247</ele>
        <time>2021-02-15T11:14:32Z</time>
      </trkpt>
      <trkpt lat="43.78347" lon="7.30465">
        <ele>792.246704</ele>
        <time>2021-02-15T11:14:48Z</time>
      </trkpt>
      <trkpt lat="43.78326" lon="7.30451">
        <ele>788.305054</ele>
        <time>2021-02-15T11:15:03Z</time>
      </trkpt>
      <trkpt lat="43.78305" lon="7.3045">
        <ele>786.267029</ele>
        <time>2021-02-15T11:15:18Z</time>
      </trkpt>
      <trkpt lat="43.78289" lon="7.30447">
        <ele>784.496704</ele>
        <time>2021-02-15T11:15:33Z</time>
      </trkpt>
      <trkpt lat="43.78269" lon="7.3045">
        <ele>783.14978</ele>
        <time>2021-02-15T11:15:49Z</time>
      </trkpt>
      <trkpt lat="43.78245" lon="7.30443">
        <ele>780.838013</ele>
        <time>2021-02-15T11:16:05Z</time>
      </trkpt>
      <trkpt lat="43.78233" lon="7.30433">
        <ele>779.860107</ele>
        <time>2021-02-15T11:16:20Z</time>
      </trkpt>
      <trkpt lat="43.78217" lon="7.30423">
        <ele>779.208984</ele>
        <time>2021-02-15T11:16:35Z</time>
      </trkpt>
      <trkpt lat="43.78193" lon="7.30425">
        <ele>779.734314</ele>
        <time>2021-02-15T11:16:51Z</time>
      </trkpt>
      <trkpt lat="43.78175" lon="7.30413">
        <ele>778.696411</ele>
        <time>2021-02-15T11:17:06Z</time>
      </trkpt>
      <trkpt lat="43.78157" lon="7.30394">
        <ele>773.3974</ele>
        <time>2021-02-15T11:17:22Z</time>
      </trkpt>
      <trkpt lat="43.78139" lon="7.30384">
        <ele>771.380615</ele>
        <time>2021-02-15T11:17:37Z</time>
      </trkpt>
      <trkpt lat="43.78116" lon="7.30379">
        <ele>771.361938</ele>
        <time>2021-02-15T11:17:53Z</time>
      </trkpt>
      <trkpt lat="43.78107" lon="7.30363">
        <ele>768.569275</ele>
        <time>2021-02-15T11:20:50Z</time>
      </trkpt>
      <trkpt lat="43.78097" lon="7.30345">
        <ele>765.576599</ele>
        <time>2021-02-15T11:21:06Z</time>
      </trkpt>
      <trkpt lat="43.78088" lon="7.30329">
        <ele>763.224976</ele>
        <time>2021-02-15T11:21:21Z</time>
      </trkpt>
      <trkpt lat="43.78079" lon="7.30314">
        <ele>759.865479</ele>
        <time>2021-02-15T11:21:39Z</time>
      </trkpt>
      <trkpt lat="43.78078" lon="7.30294">
        <ele>754.493591</ele>
        <time>2021-02-15T11:22:03Z</time>
      </trkpt>
      <trkpt lat="43.78069" lon="7.30278">
        <ele>751.159302</ele>
        <time>2021-02-15T11:22:21Z</time>
      </trkpt>
      <trkpt lat="43.78067" lon="7.30259">
        <ele>746.708557</ele>
        <time>2021-02-15T11:22:41Z</time>
      </trkpt>
      <trkpt lat="43.78059" lon="7.30242">
        <ele>743.834167</ele>
        <time>2021-02-15T11:23:02Z</time>
      </trkpt>
      <trkpt lat="43.7805" lon="7.30227">
        <ele>741.398193</ele>
        <time>2021-02-15T11:23:19Z</time>
      </trkpt>
      <trkpt lat="43.78041" lon="7.30212">
        <ele>739.437256</ele>
        <time>2021-02-15T11:23:57Z</time>
      </trkpt>
      <trkpt lat="43.78033" lon="7.30188">
        <ele>735.189026</ele>
        <time>2021-02-15T11:24:12Z</time>
      </trkpt>
      <trkpt lat="43.78023" lon="7.30165">
        <ele>732.090942</ele>
        <time>2021-02-15T11:24:28Z</time>
      </trkpt>
      <trkpt lat="43.78014" lon="7.30147">
        <ele>729.806885</ele>
        <time>2021-02-15T11:24:44Z</time>
      </trkpt>
      <trkpt lat="43.78005" lon="7.30122">
        <ele>726.293945</ele>
        <time>2021-02-15T11:24:59Z</time>
      </trkpt>
      <trkpt lat="43.77996" lon="7.30101">
        <ele>722.431213</ele>
        <time>2021-02-15T11:25:14Z</time>
      </trkpt>
      <trkpt lat="43.77991" lon="7.30082">
        <ele>717.966675</ele>
        <time>2021-02-15T11:25:30Z</time>
      </trkpt>
      <trkpt lat="43.77987" lon="7.30061">
        <ele>712.35498</ele>
        <time>2021-02-15T11:25:45Z</time>
      </trkpt>
      <trkpt lat="43.77985" lon="7.30042">
        <ele>707.155579</ele>
        <time>2021-02-15T11:26:39Z</time>
      </trkpt>
      <trkpt lat="43.77979" lon="7.30014">
        <ele>699.779358</ele>
        <time>2021-02-15T11:26:54Z</time>
      </trkpt>
      <trkpt lat="43.7797" lon="7.29987">
        <ele>692.435913</ele>
        <time>2021-02-15T11:27:10Z</time>
      </trkpt>
      <trkpt lat="43.7796" lon="7.29973">
        <ele>689.108521</ele>
        <time>2021-02-15T11:27:27Z</time>
      </trkpt>
      <trkpt lat="43.77953" lon="7.29956">
        <ele>685.243164</ele>
        <time>2021-02-15T11:27:44Z</time>
      </trkpt>
      <trkpt lat="43.77953" lon="7.29938">
        <ele>680.898804</ele>
        <time>2021-02-15T11:28:04Z</time>
      </trkpt>
      <trkpt lat="43.77952" lon="7.29918">
        <ele>676.536804</ele>
        <time>2021-02-15T11:28:28Z</time>
      </trkpt>
      <trkpt lat="43.77945" lon="7.29901">
        <ele>674.668701</ele>
        <time>2021-02-15T11:28:46Z</time>
      </trkpt>
      <trkpt lat="43.77949" lon="7.29879">
        <ele>670.796265</ele>
        <time>2021-02-15T11:29:02Z</time>
      </trkpt>
      <trkpt lat="43.77944" lon="7.29855">
        <ele>668.25647</ele>
        <time>2021-02-15T11:29:18Z</time>
      </trkpt>
      <trkpt lat="43.77937" lon="7.29838">
        <ele>667.464417</ele>
        <time>2021-02-15T11:29:35Z</time>
      </trkpt>
      <trkpt lat="43.77924" lon="7.29833">
        <ele>670.149475</ele>
        <time>2021-02-15T11:30:37Z</time>
      </trkpt>
      <trkpt lat="43.77914" lon="7.29805">
        <ele>668.940308</ele>
        <time>2021-02-15T11:30:52Z</time>
      </trkpt>
      <trkpt lat="43.77898" lon="7.29785">
        <ele>663.688843</ele>
        <time>2021-02-15T11:31:08Z</time>
      </trkpt>
      <trkpt lat="43.7788" lon="7.29781">
        <ele>659.327148</ele>
        <time>2021-02-15T11:31:23Z</time>
      </trkpt>
      <trkpt lat="43.77862" lon="7.29776">
        <ele>655.233521</ele>
        <time>2021-02-15T11:31:39Z</time>
      </trkpt>
      <trkpt lat="43.77841" lon="7.2977">
        <ele>650.796204</ele>
        <time>2021-02-15T11:31:55Z</time>
      </trkpt>
      <trkpt lat="43.77827" lon="7.29752">
        <ele>646.877747</ele>
        <time>2021-02-15T11:32:11Z</time>
      </trkpt>
      <trkpt lat="43.77825" lon="7.29732">
        <ele>645.840149</ele>
        <time>2021-02-15T11:32:26Z</time>
      </trkpt>
      <trkpt lat="43.77822" lon="7.29709">
        <ele>644.331055</ele>
        <time>2021-02-15T11:32:41Z</time>
      </trkpt>
      <trkpt lat="43.77819" lon="7.29681">
        <ele>642.570007</ele>
        <time>2021-02-15T11:32:57Z</time>
      </trkpt>
      <trkpt lat="43.7781" lon="7.29696">
        <ele>637.822266</ele>
        <time>2021-02-15T11:33:23Z</time>
      </trkpt>
      <trkpt lat="43.77804" lon="7.29721">
        <ele>634.864441</ele>
        <time>2021-02-15T11:33:38Z</time>
      </trkpt>
      <trkpt lat="43.77794" lon="7.29752">
        <ele>629.800476</ele>
        <time>2021-02-15T11:33:54Z</time>
      </trkpt>
      <trkpt lat="43.77786" lon="7.29781">
        <ele>625.781372</ele>
        <time>2021-02-15T11:34:09Z</time>
      </trkpt>
      <trkpt lat="43.77794" lon="7.29812">
        <ele>629.464905</ele>
        <time>2021-02-15T11:34:25Z</time>
      </trkpt>
      <trkpt lat="43.7778" lon="7.29811">
        <ele>623.160095</ele>
        <time>2021-02-15T11:34:41Z</time>
      </trkpt>
      <trkpt lat="43.77766" lon="7.29791">
        <ele>616.22113</ele>
        <time>2021-02-15T11:34:56Z</time>
      </trkpt>
      <trkpt lat="43.77763" lon="7.29768">
        <ele>614.083069</ele>
        <time>2021-02-15T11:35:12Z</time>
      </trkpt>
      <trkpt lat="43.77762" lon="7.29737">
        <ele>613.285706</ele>
        <time>2021-02-15T11:35:27Z</time>
      </trkpt>
      <trkpt lat="43.77753" lon="7.29723">
        <ele>608.556335</ele>
        <time>2021-02-15T11:35:43Z</time>
      </trkpt>
      <trkpt lat="43.77743" lon="7.29754">
        <ele>604.124268</ele>
        <time>2021-02-15T11:35:59Z</time>
      </trkpt>
      <trkpt lat="43.77738" lon="7.29783">
        <ele>603.735046</ele>
        <time>2021-02-15T11:36:14Z</time>
      </trkpt>
      <trkpt lat="43.77736" lon="7.29809">
        <ele>604.831543</ele>
        <time>2021-02-15T11:36:29Z</time>
      </trkpt>
      <trkpt lat="43.77729" lon="7.29827">
        <ele>604.372009</ele>
        <time>2021-02-15T11:36:58Z</time>
      </trkpt>
      <trkpt lat="43.77729" lon="7.29858">
        <ele>610.190308</ele>
        <time>2021-02-15T11:37:14Z</time>
      </trkpt>
      <trkpt lat="43.7773" lon="7.29883">
        <ele>615.655029</ele>
        <time>2021-02-15T11:37:29Z</time>
      </trkpt>
      <trkpt lat="43.77716" lon="7.29887">
        <ele>614.469421</ele>
        <time>2021-02-15T11:37:58Z</time>
      </trkpt>
      <trkpt lat="43.77702" lon="7.29882">
        <ele>610.935242</ele>
        <time>2021-02-15T11:38:15Z</time>
      </trkpt>
      <trkpt lat="43.77679" lon="7.29879">
        <ele>606.345398</ele>
        <time>2021-02-15T11:38:31Z</time>
      </trkpt>
      <trkpt lat="43.77659" lon="7.29867">
        <ele>600.088257</ele>
        <time>2021-02-15T11:38:46Z</time>
      </trkpt>
      <trkpt lat="43.7764" lon="7.29855">
        <ele>595.563904</ele>
        <time>2021-02-15T11:39:01Z</time>
      </trkpt>
      <trkpt lat="43.77625" lon="7.29844">
        <ele>591.550171</ele>
        <time>2021-02-15T11:39:17Z</time>
      </trkpt>
      <trkpt lat="43.77603" lon="7.29835">
        <ele>588.233154</ele>
        <time>2021-02-15T11:39:33Z</time>
      </trkpt>
      <trkpt lat="43.77585" lon="7.29824">
        <ele>583.660156</ele>
        <time>2021-02-15T11:39:48Z</time>
      </trkpt>
      <trkpt lat="43.77561" lon="7.29816">
        <ele>574.665649</ele>
        <time>2021-02-15T11:40:04Z</time>
      </trkpt>
      <trkpt lat="43.77538" lon="7.29812">
        <ele>567.185181</ele>
        <time>2021-02-15T11:40:19Z</time>
      </trkpt>
      <trkpt lat="43.77518" lon="7.29811">
        <ele>562.118042</ele>
        <time>2021-02-15T11:40:34Z</time>
      </trkpt>
      <trkpt lat="43.77496" lon="7.2983">
        <ele>560.988647</ele>
        <time>2021-02-15T11:40:50Z</time>
      </trkpt>
      <trkpt lat="43.77478" lon="7.2985">
        <ele>557.836609</ele>
        <time>2021-02-15T11:41:06Z</time>
      </trkpt>
      <trkpt lat="43.77464" lon="7.29872">
        <ele>556.777344</ele>
        <time>2021-02-15T11:41:21Z</time>
      </trkpt>
      <trkpt lat="43.77446" lon="7.29887">
        <ele>552.15979</ele>
        <time>2021-02-15T11:41:36Z</time>
      </trkpt>
      <trkpt lat="43.77432" lon="7.29884">
        <ele>545.297852</ele>
        <time>2021-02-15T11:42:01Z</time>
      </trkpt>
      <trkpt lat="43.77416" lon="7.29897">
        <ele>541.153381</ele>
        <time>2021-02-15T11:42:17Z</time>
      </trkpt>
      <trkpt lat="43.77403" lon="7.29907">
        <ele>538.522217</ele>
        <time>2021-02-15T11:42:32Z</time>
      </trkpt>
      <trkpt lat="43.77384" lon="7.29929">
        <ele>536.820068</ele>
        <time>2021-02-15T11:42:48Z</time>
      </trkpt>
      <trkpt lat="43.77373" lon="7.29952">
        <ele>538.296387</ele>
        <time>2021-02-15T11:43:03Z</time>
      </trkpt>
      <trkpt lat="43.77364" lon="7.29967">
        <ele>538.50708</ele>
        <time>2021-02-15T11:43:20Z</time>
      </trkpt>
      <trkpt lat="43.7735" lon="7.2997">
        <ele>533.956177</ele>
        <time>2021-02-15T11:43:42Z</time>
      </trkpt>
      <trkpt lat="43.7734" lon="7.2999">
        <ele>534.825684</ele>
        <time>2021-02-15T11:43:58Z</time>
      </trkpt>
      <trkpt lat="43.77329" lon="7.3001">
        <ele>532.319336</ele>
        <time>2021-02-15T11:44:14Z</time>
      </trkpt>
      <trkpt lat="43.77315" lon="7.30024">
        <ele>525.149841</ele>
        <time>2021-02-15T11:44:30Z</time>
      </trkpt>
      <trkpt lat="43.77305" lon="7.30038">
        <ele>520.188904</ele>
        <time>2021-02-15T11:44:46Z</time>
      </trkpt>
      <trkpt lat="43.77292" lon="7.30048">
        <ele>514.780518</ele>
        <time>2021-02-15T11:45:06Z</time>
      </trkpt>
      <trkpt lat="43.77279" lon="7.30053">
        <ele>509.436066</ele>
        <time>2021-02-15T11:45:41Z</time>
      </trkpt>
      <trkpt lat="43.77264" lon="7.30053">
        <ele>504.210632</ele>
        <time>2021-02-15T11:45:59Z</time>
      </trkpt>
      <trkpt lat="43.77248" lon="7.3004">
        <ele>498.512726</ele>
        <time>2021-02-15T11:46:15Z</time>
      </trkpt>
      <trkpt lat="43.77231" lon="7.30031">
        <ele>492.021729</ele>
        <time>2021-02-15T11:46:30Z</time>
      </trkpt>
      <trkpt lat="43.77214" lon="7.30023">
        <ele>485.538818</ele>
        <time>2021-02-15T11:46:45Z</time>
      </trkpt>
      <trkpt lat="43.77198" lon="7.30013">
        <ele>479.953156</ele>
        <time>2021-02-15T11:47:00Z</time>
      </trkpt>
      <trkpt lat="43.77179" lon="7.29999">
        <ele>473.570618</ele>
        <time>2021-02-15T11:47:15Z</time>
      </trkpt>
      <trkpt lat="43.77171" lon="7.29983">
        <ele>470.524353</ele>
        <time>2021-02-15T11:47:42Z</time>
      </trkpt>
      <trkpt lat="43.77169" lon="7.29961">
        <ele>469.983459</ele>
        <time>2021-02-15T11:47:57Z</time>
      </trkpt>
      <trkpt lat="43.77165" lon="7.29934">
        <ele>469.673004</ele>
        <time>2021-02-15T11:48:12Z</time>
      </trkpt>
      <trkpt lat="43.77173" lon="7.29905">
        <ele>470.736908</ele>
        <time>2021-02-15T11:48:28Z</time>
      </trkpt>
      <trkpt lat="43.77181" lon="7.29882">
        <ele>470.875061</ele>
        <time>2021-02-15T11:48:43Z</time>
      </trkpt>
      <trkpt lat="43.77193" lon="7.29857">
        <ele>470.298218</ele>
        <time>2021-02-15T11:48:59Z</time>
      </trkpt>
      <trkpt lat="43.77201" lon="7.29831">
        <ele>468.42627</ele>
        <time>2021-02-15T11:49:14Z</time>
      </trkpt>
      <trkpt lat="43.77199" lon="7.29799">
        <ele>466.671082</ele>
        <time>2021-02-15T11:49:29Z</time>
      </trkpt>
      <trkpt lat="43.77202" lon="7.29767">
        <ele>464.548706</ele>
        <time>2021-02-15T11:49:45Z</time>
      </trkpt>
      <trkpt lat="43.77195" lon="7.2974">
        <ele>464.009094</ele>
        <time>2021-02-15T11:50:00Z</time>
      </trkpt>
      <trkpt lat="43.77191" lon="7.29712">
        <ele>463.510437</ele>
        <time>2021-02-15T11:50:15Z</time>
      </trkpt>
      <trkpt lat="43.77191" lon="7.29685">
        <ele>462.239227</ele>
        <time>2021-02-15T11:50:31Z</time>
      </trkpt>
      <trkpt lat="43.77199" lon="7.29669">
        <ele>459.295929</ele>
        <time>2021-02-15T11:50:57Z</time>
      </trkpt>
      <trkpt lat="43.77205" lon="7.29653">
        <ele>456.799927</ele>
        <time>2021-02-15T11:51:21Z</time>
      </trkpt>
      <trkpt lat="43.77218" lon="7.29646">
        <ele>452.862244</ele>
        <time>2021-02-15T11:51:47Z</time>
      </trkpt>
      <trkpt lat="43.77231" lon="7.2964">
        <ele>448.946655</ele>
        <time>2021-02-15T11:52:14Z</time>
      </trkpt>
      <trkpt lat="43.77244" lon="7.29635">
        <ele>445.021881</ele>
        <time>2021-02-15T11:52:41Z</time>
      </trkpt>
      <trkpt lat="43.77261" lon="7.2963">
        <ele>444.566833</ele>
        <time>2021-02-15T11:52:57Z</time>
      </trkpt>
      <trkpt lat="43.77278" lon="7.29617">
        <ele>445.390076</ele>
        <time>2021-02-15T11:53:12Z</time>
      </trkpt>
      <trkpt lat="43.77289" lon="7.29594">
        <ele>443.747955</ele>
        <time>2021-02-15T11:53:28Z</time>
      </trkpt>
      <trkpt lat="43.77298" lon="7.29581">
        <ele>442.369873</ele>
        <time>2021-02-15T11:53:52Z</time>
      </trkpt>
      <trkpt lat="43.77312" lon="7.29556">
        <ele>438.487213</ele>
        <time>2021-02-15T11:54:08Z</time>
      </trkpt>
      <trkpt lat="43.77323" lon="7.29544">
        <ele>435.293152</ele>
        <time>2021-02-15T11:54:23Z</time>
      </trkpt>
      <trkpt lat="43.77328" lon="7.29518">
        <ele>429.260864</ele>
        <time>2021-02-15T11:54:39Z</time>
      </trkpt>
      <trkpt lat="43.77331" lon="7.29492">
        <ele>423.606873</ele>
        <time>2021-02-15T11:54:54Z</time>
      </trkpt>
      <trkpt lat="43.77335" lon="7.29466">
        <ele>419.809601</ele>
        <time>2021-02-15T11:55:10Z</time>
      </trkpt>
      <trkpt lat="43.77345" lon="7.29438">
        <ele>417.01062</ele>
        <time>2021-02-15T11:55:26Z</time>
      </trkpt>
      <trkpt lat="43.77355" lon="7.29411">
        <ele>413.660339</ele>
        <time>2021-02-15T11:55:42Z</time>
      </trkpt>
      <trkpt lat="43.77369" lon="7.29392">
        <ele>411.177582</ele>
        <time>2021-02-15T11:55:57Z</time>
      </trkpt>
      <trkpt lat="43.77382" lon="7.29385">
        <ele>409.941833</ele>
        <time>2021-02-15T11:56:15Z</time>
      </trkpt>
      <trkpt lat="43.77395" lon="7.29378">
        <ele>408.27179</ele>
        <time>2021-02-15T11:56:33Z</time>
      </trkpt>
      <trkpt lat="43.77404" lon="7.29357">
        <ele>402.526764</ele>
        <time>2021-02-15T11:56:49Z</time>
      </trkpt>
      <trkpt lat="43.77405" lon="7.29337">
        <ele>397.387238</ele>
        <time>2021-02-15T11:57:04Z</time>
      </trkpt>
      <trkpt lat="43.77418" lon="7.29329">
        <ele>394.675873</ele>
        <time>2021-02-15T11:57:43Z</time>
      </trkpt>
      <trkpt lat="43.77416" lon="7.29309">
        <ele>391.470917</ele>
        <time>2021-02-15T11:58:02Z</time>
      </trkpt>
      <trkpt lat="43.77414" lon="7.2929">
        <ele>389.107208</ele>
        <time>2021-02-15T11:58:22Z</time>
      </trkpt>
      <trkpt lat="43.77409" lon="7.29272">
        <ele>387.268799</ele>
        <time>2021-02-15T11:58:42Z</time>
      </trkpt>
      <trkpt lat="43.77406" lon="7.29252">
        <ele>385.155365</ele>
        <time>2021-02-15T11:59:00Z</time>
      </trkpt>
      <trkpt lat="43.77401" lon="7.29233">
        <ele>384.280701</ele>
        <time>2021-02-15T11:59:23Z</time>
      </trkpt>
      <trkpt lat="43.77399" lon="7.29214">
        <ele>383.079895</ele>
        <time>2021-02-15T11:59:52Z</time>
      </trkpt>
      <trkpt lat="43.774" lon="7.29194">
        <ele>381.466827</ele>
        <time>2021-02-15T12:00:27Z</time>
      </trkpt>
      <trkpt lat="43.77402" lon="7.29176">
        <ele>379.604431</ele>
        <time>2021-02-15T12:00:46Z</time>
      </trkpt>
      <trkpt lat="43.77398" lon="7.29148">
        <ele>377.227936</ele>
        <time>2021-02-15T12:01:02Z</time>
      </trkpt>
      <trkpt lat="43.77411" lon="7.29158">
        <ele>377.158844</ele>
        <time>2021-02-15T12:01:28Z</time>
      </trkpt>
      <trkpt lat="43.77415" lon="7.29139">
        <ele>375.732605</ele>
        <time>2021-02-15T12:01:45Z</time>
      </trkpt>
      <trkpt lat="43.77406" lon="7.2912">
        <ele>374.265015</ele>
        <time>2021-02-15T12:02:01Z</time>
      </trkpt>
      <trkpt lat="43.77397" lon="7.29096">
        <ele>370.983032</ele>
        <time>2021-02-15T12:02:17Z</time>
      </trkpt>
      <trkpt lat="43.77392" lon="7.29078">
        <ele>368.02182</ele>
        <time>2021-02-15T12:02:32Z</time>
      </trkpt>
      <trkpt lat="43.77392" lon="7.29059">
        <ele>366.260132</ele>
        <time>2021-02-15T12:02:58Z</time>
      </trkpt>
      <trkpt lat="43.77386" lon="7.29041">
        <ele>362.379517</ele>
        <time>2021-02-15T12:03:13Z</time>
      </trkpt>
      <trkpt lat="43.77372" lon="7.29029">
        <ele>355.97052</ele>
        <time>2021-02-15T12:03:29Z</time>
      </trkpt>
      <trkpt lat="43.77359" lon="7.29011">
        <ele>347.155365</ele>
        <time>2021-02-15T12:03:44Z</time>
      </trkpt>
      <trkpt lat="43.77354" lon="7.28992">
        <ele>341.768982</ele>
        <time>2021-02-15T12:04:03Z</time>
      </trkpt>
      <trkpt lat="43.77355" lon="7.28973">
        <ele>339.626984</ele>
        <time>2021-02-15T12:04:20Z</time>
      </trkpt>
      <trkpt lat="43.77354" lon="7.28954">
        <ele>336.812988</ele>
        <time>2021-02-15T12:04:36Z</time>
      </trkpt>
      <trkpt lat="43.77352" lon="7.28932">
        <ele>333.060699</ele>
        <time>2021-02-15T12:04:51Z</time>
      </trkpt>
      <trkpt lat="43.77349" lon="7.28912">
        <ele>328.989319</ele>
        <time>2021-02-15T12:05:09Z</time>
      </trkpt>
      <trkpt lat="43.77352" lon="7.28893">
        <ele>329.079285</ele>
        <time>2021-02-15T12:05:36Z</time>
      </trkpt>
      <trkpt lat="43.77356" lon="7.28875">
        <ele>330.416779</ele>
        <time>2021-02-15T12:05:54Z</time>
      </trkpt>
      <trkpt lat="43.77368" lon="7.2886">
        <ele>335.91806</ele>
        <time>2021-02-15T12:06:09Z</time>
      </trkpt>
      <trkpt lat="43.77382" lon="7.28851">
        <ele>343.154297</ele>
        <time>2021-02-15T12:06:24Z</time>
      </trkpt>
      <trkpt lat="43.77401" lon="7.28829">
        <ele>351.316742</ele>
        <time>2021-02-15T12:06:40Z</time>
      </trkpt>
      <trkpt lat="43.77415" lon="7.2881">
        <ele>355.170441</ele>
        <time>2021-02-15T12:06:55Z</time>
      </trkpt>
      <trkpt lat="43.77429" lon="7.28789">
        <ele>356.451599</ele>
        <time>2021-02-15T12:07:11Z</time>
      </trkpt>
      <trkpt lat="43.7744" lon="7.28769">
        <ele>356.086243</ele>
        <time>2021-02-15T12:07:27Z</time>
      </trkpt>
      <trkpt lat="43.77456" lon="7.28756">
        <ele>358.173706</ele>
        <time>2021-02-15T12:07:43Z</time>
      </trkpt>
      <trkpt lat="43.77477" lon="7.28743">
        <ele>359.671906</ele>
        <time>2021-02-15T12:07:59Z</time>
      </trkpt>
      <trkpt lat="43.77492" lon="7.28729">
        <ele>356.457886</ele>
        <time>2021-02-15T12:08:15Z</time>
      </trkpt>
      <trkpt lat="43.77509" lon="7.28723">
        <ele>355.839447</ele>
        <time>2021-02-15T12:08:31Z</time>
      </trkpt>
      <trkpt lat="43.77527" lon="7.28716">
        <ele>351.328522</ele>
        <time>2021-02-15T12:08:47Z</time>
      </trkpt>
      <trkpt lat="43.77542" lon="7.28705">
        <ele>345.044769</ele>
        <time>2021-02-15T12:09:03Z</time>
      </trkpt>
      <trkpt lat="43.77561" lon="7.28699">
        <ele>341.61911</ele>
        <time>2021-02-15T12:09:19Z</time>
      </trkpt>
      <trkpt lat="43.77577" lon="7.28689">
        <ele>335.365997</ele>
        <time>2021-02-15T12:09:34Z</time>
      </trkpt>
      <trkpt lat="43.77597" lon="7.28685">
        <ele>333.230865</ele>
        <time>2021-02-15T12:09:49Z</time>
      </trkpt>
      <trkpt lat="43.77618" lon="7.28681">
        <ele>331.029205</ele>
        <time>2021-02-15T12:10:05Z</time>
      </trkpt>
      <trkpt lat="43.77636" lon="7.28672">
        <ele>325.81781</ele>
        <time>2021-02-15T12:10:20Z</time>
      </trkpt>
      <trkpt lat="43.77654" lon="7.28663">
        <ele>321.460358</ele>
        <time>2021-02-15T12:10:36Z</time>
      </trkpt>
      <trkpt lat="43.77671" lon="7.2866">
        <ele>320.543915</ele>
        <time>2021-02-15T12:10:51Z</time>
      </trkpt>
      <trkpt lat="43.77684" lon="7.28653">
        <ele>317.936279</ele>
        <time>2021-02-15T12:11:17Z</time>
      </trkpt>
      <trkpt lat="43.77698" lon="7.28647">
        <ele>316.330261</ele>
        <time>2021-02-15T12:11:32Z</time>
      </trkpt>
      <trkpt lat="43.77688" lon="7.28634">
        <ele>311.228241</ele>
        <time>2021-02-15T12:11:49Z</time>
      </trkpt>
      <trkpt lat="43.77698" lon="7.2862">
        <ele>306.599762</ele>
        <time>2021-02-15T12:12:12Z</time>
      </trkpt>
      <trkpt lat="43.77713" lon="7.28608">
        <ele>303.02124</ele>
        <time>2021-02-15T12:12:28Z</time>
      </trkpt>
      <trkpt lat="43.77731" lon="7.28602">
        <ele>301.765167</ele>
        <time>2021-02-15T12:12:44Z</time>
      </trkpt>
      <trkpt lat="43.77745" lon="7.28607">
        <ele>304.35376</ele>
        <time>2021-02-15T12:13:02Z</time>
      </trkpt>
      <trkpt lat="43.77759" lon="7.28605">
        <ele>305.009888</ele>
        <time>2021-02-15T12:13:18Z</time>
      </trkpt>
      <trkpt lat="43.77775" lon="7.28583">
        <ele>299.717316</ele>
        <time>2021-02-15T12:13:33Z</time>
      </trkpt>
      <trkpt lat="43.77787" lon="7.28574">
        <ele>298.483704</ele>
        <time>2021-02-15T12:14:07Z</time>
      </trkpt>
      <trkpt lat="43.77802" lon="7.28561">
        <ele>296.869537</ele>
        <time>2021-02-15T12:14:22Z</time>
      </trkpt>
      <trkpt lat="43.77809" lon="7.28537">
        <ele>291.630585</ele>
        <time>2021-02-15T12:14:37Z</time>
      </trkpt>
      <trkpt lat="43.77822" lon="7.28519">
        <ele>288.4375</ele>
        <time>2021-02-15T12:14:52Z</time>
      </trkpt>
      <trkpt lat="43.77837" lon="7.28508">
        <ele>287.472504</ele>
        <time>2021-02-15T12:15:08Z</time>
      </trkpt>
      <trkpt lat="43.77846" lon="7.28493">
        <ele>285.325958</ele>
        <time>2021-02-15T12:15:24Z</time>
      </trkpt>
      <trkpt lat="43.77853" lon="7.28477">
        <ele>282.873291</ele>
        <time>2021-02-15T12:15:40Z</time>
      </trkpt>
      <trkpt lat="43.77861" lon="7.28461">
        <ele>280.526215</ele>
        <time>2021-02-15T12:15:55Z</time>
      </trkpt>
      <trkpt lat="43.77878" lon="7.28443">
        <ele>278.749817</ele>
        <time>2021-02-15T12:16:11Z</time>
      </trkpt>
      <trkpt lat="43.7789" lon="7.28421">
        <ele>275.780884</ele>
        <time>2021-02-15T12:16:27Z</time>
      </trkpt>
      <trkpt lat="43.77893" lon="7.28402">
        <ele>272.631927</ele>
        <time>2021-02-15T12:16:45Z</time>
      </trkpt>
      <trkpt lat="43.77895" lon="7.28382">
        <ele>269.510071</ele>
        <time>2021-02-15T12:17:08Z</time>
      </trkpt>
      <trkpt lat="43.7791" lon="7.28363">
        <ele>267.368164</ele>
        <time>2021-02-15T12:17:23Z</time>
      </trkpt>
      <trkpt lat="43.77924" lon="7.28341">
        <ele>264.103851</ele>
        <time>2021-02-15T12:17:39Z</time>
      </trkpt>
      <trkpt lat="43.77936" lon="7.28314">
        <ele>262.766479</ele>
        <time>2021-02-15T12:17:55Z</time>
      </trkpt>
      <trkpt lat="43.77954" lon="7.28296">
        <ele>262.818604</ele>
        <time>2021-02-15T12:18:10Z</time>
      </trkpt>
      <trkpt lat="43.77975" lon="7.28299">
        <ele>264.056946</ele>
        <time>2021-02-15T12:18:26Z</time>
      </trkpt>
      <trkpt lat="43.77997" lon="7.28304">
        <ele>265.69519</ele>
        <time>2021-02-15T12:18:42Z</time>
      </trkpt>
      <trkpt lat="43.78021" lon="7.28314">
        <ele>268.762451</ele>
        <time>2021-02-15T12:18:58Z</time>
      </trkpt>
      <trkpt lat="43.78042" lon="7.28307">
        <ele>269.506226</ele>
        <time>2021-02-15T12:19:14Z</time>
      </trkpt>
      <trkpt lat="43.7806" lon="7.28296">
        <ele>268.896515</ele>
        <time>2021-02-15T12:19:29Z</time>
      </trkpt>
      <trkpt lat="43.78081" lon="7.28279">
        <ele>266.842163</ele>
        <time>2021-02-15T12:19:45Z</time>
      </trkpt>
      <trkpt lat="43.78098" lon="7.28259">
        <ele>263.803223</ele>
        <time>2021-02-15T12:20:01Z</time>
      </trkpt>
      <trkpt lat="43.78108" lon="7.28247">
        <ele>262.46106</ele>
        <time>2021-02-15T12:20:20Z</time>
      </trkpt>
      <trkpt lat="43.78126" lon="7.28229">
        <ele>263.299133</ele>
        <time>2021-02-15T12:20:36Z</time>
      </trkpt>
      <trkpt lat="43.78138" lon="7.28206">
        <ele>263.736359</ele>
        <time>2021-02-15T12:20:51Z</time>
      </trkpt>
      <trkpt lat="43.7814" lon="7.2818">
        <ele>263.568726</ele>
        <time>2021-02-15T12:21:06Z</time>
      </trkpt>
      <trkpt lat="43.78145" lon="7.28161">
        <ele>264.56842</ele>
        <time>2021-02-15T12:22:01Z</time>
      </trkpt>
      <trkpt lat="43.78139" lon="7.28141">
        <ele>267.71225</ele>
        <time>2021-02-15T12:22:16Z</time>
      </trkpt>
      <trkpt lat="43.78152" lon="7.28135">
        <ele>269.315826</ele>
        <time>2021-02-15T12:22:41Z</time>
      </trkpt>
      <trkpt lat="43.78157" lon="7.28118">
        <ele>272.350311</ele>
        <time>2021-02-15T12:23:09Z</time>
      </trkpt>
      <trkpt lat="43.78166" lon="7.28102">
        <ele>275.11084</ele>
        <time>2021-02-15T12:23:36Z</time>
      </trkpt>
      <trkpt lat="43.78177" lon="7.28085">
        <ele>278.192474</ele>
        <time>2021-02-15T12:23:52Z</time>
      </trkpt>
      <trkpt lat="43.78191" lon="7.28078">
        <ele>281.167389</ele>
        <time>2021-02-15T12:24:15Z</time>
      </trkpt>
      <trkpt lat="43.78203" lon="7.28067">
        <ele>285.163483</ele>
        <time>2021-02-15T12:24:32Z</time>
      </trkpt>
      <trkpt lat="43.78215" lon="7.28055">
        <ele>288.627808</ele>
        <time>2021-02-15T12:24:56Z</time>
      </trkpt>
      <trkpt lat="43.7823" lon="7.2804">
        <ele>292.118988</ele>
        <time>2021-02-15T12:25:12Z</time>
      </trkpt>
      <trkpt lat="43.78245" lon="7.28028">
        <ele>293.745972</ele>
        <time>2021-02-15T12:25:27Z</time>
      </trkpt>
      <trkpt lat="43.78263" lon="7.28021">
        <ele>294.00415</ele>
        <time>2021-02-15T12:25:42Z</time>
      </trkpt>
      <trkpt lat="43.78273" lon="7.28005">
        <ele>296.255005</ele>
        <time>2021-02-15T12:25:58Z</time>
      </trkpt>
      <trkpt lat="43.78285" lon="7.27995">
        <ele>297.45285</ele>
        <time>2021-02-15T12:26:15Z</time>
      </trkpt>
      <trkpt lat="43.78299" lon="7.27989">
        <ele>297.736389</ele>
        <time>2021-02-15T12:26:30Z</time>
      </trkpt>
      <trkpt lat="43.78312" lon="7.2798">
        <ele>298.260315</ele>
        <time>2021-02-15T12:26:46Z</time>
      </trkpt>
      <trkpt lat="43.78324" lon="7.27963">
        <ele>299.652679</ele>
        <time>2021-02-15T12:27:01Z</time>
      </trkpt>
      <trkpt lat="43.78331" lon="7.27948">
        <ele>300.772797</ele>
        <time>2021-02-15T12:27:30Z</time>
      </trkpt>
      <trkpt lat="43.78337" lon="7.27931">
        <ele>302.690247</ele>
        <time>2021-02-15T12:29:11Z</time>
      </trkpt>
      <trkpt lat="43.78343" lon="7.27914">
        <ele>305.588928</ele>
        <time>2021-02-15T12:29:34Z</time>
      </trkpt>
      <trkpt lat="43.78351" lon="7.27899">
        <ele>310.948486</ele>
        <time>2021-02-15T12:31:28Z</time>
      </trkpt>
      <trkpt lat="43.78364" lon="7.2789">
        <ele>312.680054</ele>
        <time>2021-02-15T12:31:46Z</time>
      </trkpt>
      <trkpt lat="43.78376" lon="7.27877">
        <ele>315.062744</ele>
        <time>2021-02-15T12:32:02Z</time>
      </trkpt>
      <trkpt lat="43.7838" lon="7.27859">
        <ele>320.277435</ele>
        <time>2021-02-15T12:32:37Z</time>
      </trkpt>
      <trkpt lat="43.78388" lon="7.27844">
        <ele>323.235535</ele>
        <time>2021-02-15T12:32:57Z</time>
      </trkpt>
      <trkpt lat="43.7839" lon="7.27818">
        <ele>334.257446</ele>
        <time>2021-02-15T12:33:13Z</time>
      </trkpt>
      <trkpt lat="43.78394" lon="7.27799">
        <ele>343.78775</ele>
        <time>2021-02-15T12:33:28Z</time>
      </trkpt>
      <trkpt lat="43.78402" lon="7.27783">
        <ele>351.43866</ele>
        <time>2021-02-15T12:33:53Z</time>
      </trkpt>
      <trkpt lat="43.78412" lon="7.2777">
        <ele>357.251373</ele>
        <time>2021-02-15T12:34:11Z</time>
      </trkpt>
      <trkpt lat="43.78418" lon="7.27753">
        <ele>366.297424</ele>
        <time>2021-02-15T12:34:26Z</time>
      </trkpt>
      <trkpt lat="43.78435" lon="7.2774">
        <ele>371.938507</ele>
        <time>2021-02-15T12:34:42Z</time>
      </trkpt>
      <trkpt lat="43.78448" lon="7.27725">
        <ele>378.206665</ele>
        <time>2021-02-15T12:34:57Z</time>
      </trkpt>
      <trkpt lat="43.78463" lon="7.27716">
        <ele>381.74942</ele>
        <time>2021-02-15T12:35:13Z</time>
      </trkpt>
      <trkpt lat="43.78477" lon="7.27711">
        <ele>383.676727</ele>
        <time>2021-02-15T12:35:58Z</time>
      </trkpt>
      <trkpt lat="43.78497" lon="7.27705">
        <ele>386.116791</ele>
        <time>2021-02-15T12:36:14Z</time>
      </trkpt>
      <trkpt lat="43.78517" lon="7.27707">
        <ele>386.825592</ele>
        <time>2021-02-15T12:36:30Z</time>
      </trkpt>
      <trkpt lat="43.7854" lon="7.27704">
        <ele>390.219391</ele>
        <time>2021-02-15T12:36:46Z</time>
      </trkpt>
      <trkpt lat="43.78556" lon="7.27701">
        <ele>392.528564</ele>
        <time>2021-02-15T12:37:01Z</time>
      </trkpt>
      <trkpt lat="43.78574" lon="7.27694">
        <ele>397.178009</ele>
        <time>2021-02-15T12:37:17Z</time>
      </trkpt>
      <trkpt lat="43.78582" lon="7.27679">
        <ele>404.703278</ele>
        <time>2021-02-15T12:37:33Z</time>
      </trkpt>
      <trkpt lat="43.78608" lon="7.27669">
        <ele>413.445892</ele>
        <time>2021-02-15T12:37:49Z</time>
      </trkpt>
      <trkpt lat="43.78628" lon="7.27647">
        <ele>416.303711</ele>
        <time>2021-02-15T12:38:05Z</time>
      </trkpt>
      <trkpt lat="43.78632" lon="7.2762">
        <ele>415.493835</ele>
        <time>2021-02-15T12:38:21Z</time>
      </trkpt>
      <trkpt lat="43.78651" lon="7.27604">
        <ele>417.176178</ele>
        <time>2021-02-15T12:38:36Z</time>
      </trkpt>
      <trkpt lat="43.78664" lon="7.27592">
        <ele>418.205353</ele>
        <time>2021-02-15T12:38:52Z</time>
      </trkpt>
      <trkpt lat="43.78678" lon="7.27599">
        <ele>419.756531</ele>
        <time>2021-02-15T12:39:07Z</time>
      </trkpt>
      <trkpt lat="43.78696" lon="7.27609">
        <ele>422.110077</ele>
        <time>2021-02-15T12:39:23Z</time>
      </trkpt>
      <trkpt lat="43.78715" lon="7.27611">
        <ele>423.793091</ele>
        <time>2021-02-15T12:39:38Z</time>
      </trkpt>
      <trkpt lat="43.78704" lon="7.27588">
        <ele>419.981171</ele>
        <time>2021-02-15T12:39:54Z</time>
      </trkpt>
      <trkpt lat="43.78691" lon="7.27572">
        <ele>415.840179</ele>
        <time>2021-02-15T12:40:09Z</time>
      </trkpt>
      <trkpt lat="43.78697" lon="7.27537">
        <ele>406.100891</ele>
        <time>2021-02-15T12:40:24Z</time>
      </trkpt>
      <trkpt lat="43.78714" lon="7.27531">
        <ele>404.409973</ele>
        <time>2021-02-15T12:40:40Z</time>
      </trkpt>
    </trkseg>
  </trk>
</gpx>